Time;durP1;ratioP1;P1;durP2;ratioP2;P2;SDS_P1;SDS_P2;PMS_P1;PMS_P2;Temp;Humidity;BMP_temperature;BMP_pressure;BME280_temperature;BME280_humidity;BME280_pressure;Samples;Min_cycle;Max_cycle;Signal;HPM_P1;HPM_P2
2023/04/19 00:00:08;;;;;;;11.10;6.63;;;;;;;-142.75;100.00;78600.31;4994335;28;20052;-64
2023/04/19 00:02:34;;;;;;;10.30;6.40;;;;;;;-142.75;100.00;78586.53;5011829;28;20026;-64
2023/04/19 00:05:00;;;;;;;9.37;6.30;;;;;;;-142.75;100.00;78598.34;4994090;28;20026;-64
2023/04/19 00:07:26;;;;;;;11.50;7.07;;;;;;;-142.75;100.00;78586.53;5011654;28;20032;-64
2023/04/19 00:09:51;;;;;;;9.93;6.70;;;;;;;-142.75;100.00;78586.53;4994144;28;20109;-66
2023/04/19 00:12:17;;;;;;;13.93;6.90;;;;;;;-142.75;100.00;78594.41;5011634;28;20041;-66
2023/04/19 00:14:42;;;;;;;10.27;6.37;;;;;;;-142.75;100.00;78572.72;5011619;28;20444;-66
2023/04/19 00:17:07;;;;;;;10.20;6.30;;;;;;;-142.75;100.00;78586.53;5011584;28;20037;-66
2023/04/19 00:19:32;;;;;;;9.13;5.87;;;;;;;-142.75;100.00;78592.44;5011678;28;20022;-67
2023/04/19 00:21:58;;;;;;;11.80;6.93;;;;;;;-142.75;100.00;78608.19;4994094;28;20480;-66
2023/04/19 00:24:23;;;;;;;11.37;6.47;;;;;;;-142.75;100.00;78598.34;5011459;28;20034;-67
2023/04/19 00:26:48;;;;;;;10.03;6.60;;;;;;;-142.75;100.00;78590.47;5011553;28;20026;-66
2023/04/19 00:29:14;;;;;;;10.17;6.63;;;;;;;-142.75;100.00;78598.34;5011450;28;20026;-66
2023/04/19 00:31:39;;;;;;;11.90;7.23;;;;;;;-142.75;100.00;78604.25;4993905;28;20053;-68
2023/04/19 00:34:05;;;;;;;9.73;6.83;;;;;;;-142.75;100.00;78618.03;5011358;28;20531;-66
2023/04/19 00:36:30;;;;;;;12.87;6.80;;;;;;;-142.75;100.00;78618.03;5011578;28;20026;-66
2023/04/19 00:38:56;;;;;;;11.50;6.90;;;;;;;-142.75;100.00;78588.50;4994636;28;20567;-66
2023/04/19 00:41:21;;;;;;;11.20;7.00;;;;;;;-142.75;100.00;78614.09;4997565;28;20026;-66
2023/04/19 00:43:46;;;;;;;11.10;7.43;;;;;;;-142.75;100.00;78586.53;5014997;28;20026;-67
2023/04/19 00:46:13;;;;;;;11.53;7.27;;;;;;;-142.75;100.00;78580.59;5015227;28;20026;-66
2023/04/19 00:48:39;;;;;;;14.63;7.63;;;;;;;-142.75;100.00;78574.69;5014978;28;20038;-66
2023/04/19 00:51:05;;;;;;;12.10;7.07;;;;;;;-142.75;100.00;78570.75;5015112;28;20080;-67
2023/04/19 00:53:30;;;;;;;15.07;7.63;;;;;;;-142.75;100.00;78555.00;5014845;28;20109;-65
2023/04/19 00:55:59;;;;;;;13.53;7.90;;;;;;;-142.75;100.00;78551.06;5014787;28;20101;-64
2023/04/19 00:58:25;;;;;;;10.87;6.73;;;;;;;-142.75;100.00;78529.41;5014879;28;20449;-65
2023/04/19 01:00:51;;;;;;;10.83;6.67;;;;;;;-142.75;100.00;78513.66;5014926;28;20025;-63
2023/04/19 01:03:16;;;;;;;12.87;7.83;;;;;;;-142.75;100.00;78511.69;5014605;28;20084;-65
2023/04/19 01:05:41;;;;;;;12.10;7.43;;;;;;;-142.75;100.00;78501.84;5014779;28;20025;-65
2023/04/19 01:08:07;;;;;;;12.93;7.22;;;;;;;-142.75;100.00;78491.97;5014594;28;20417;-66
2023/04/19 01:10:32;;;;;;;12.60;7.53;;;;;;;-142.75;100.00;78493.97;4996764;28;20026;-67
2023/04/19 01:12:58;;;;;;;14.07;7.07;;;;;;;-142.75;100.00;78480.16;5014534;28;20029;-67
2023/04/19 01:15:23;;;;;;;11.68;6.85;;;;;;;-142.75;100.00;78472.28;5014552;28;20035;-66
2023/04/19 01:17:48;;;;;;;14.35;7.82;;;;;;;-142.75;100.00;78454.56;5014429;28;20026;-66
2023/04/19 01:20:14;;;;;;;10.88;6.95;;;;;;;-142.75;100.00;78446.69;5014794;28;20438;-66
2023/04/19 01:22:39;;;;;;;13.67;7.90;;;;;;;-142.75;100.00;78442.75;5014432;28;20101;-63
2023/04/19 01:25:06;;;;;;;13.77;8.60;;;;;;;-142.75;100.00;78411.25;5014117;28;20486;-65
2023/04/19 01:27:32;;;;;;;11.87;7.70;;;;;;;-142.75;100.00;78415.19;4996678;28;20018;-64
2023/04/19 01:29:57;;;;;;;13.30;7.70;;;;;;;-142.75;100.00;78405.34;5014240;28;20440;-65
2023/04/19 01:32:25;;;;;;;14.17;8.47;;;;;;;-142.75;100.00;78409.28;4996717;28;20020;-65
2023/04/19 01:34:51;;;;;;;16.35;7.60;;;;;;;-142.75;100.00;78393.50;5014006;28;20018;-65
2023/04/19 01:37:16;;;;;;;13.00;7.80;;;;;;;-142.75;100.00;78377.75;5014180;28;20021;-64
2023/04/19 01:39:42;;;;;;;12.90;7.75;;;;;;;-142.75;100.00;78385.63;5012942;28;20064;-66
2023/04/19 01:42:07;;;;;;;14.73;8.00;;;;;;;-142.75;100.00;78379.72;4996558;28;20029;-66
2023/04/19 01:44:32;;;;;;;14.80;8.40;;;;;;;-142.75;100.00;78391.53;5013907;28;20029;-66
2023/04/19 01:46:57;;;;;;;16.23;8.03;;;;;;;-142.75;100.00;78371.84;5014046;28;20036;-67
2023/04/19 01:49:23;;;;;;;13.07;8.10;;;;;;;-142.75;100.00;78379.72;5013785;28;20030;-66
2023/04/19 01:51:48;;;;;;;11.40;7.63;;;;;;;-142.75;100.00;78381.69;5012964;28;20160;-66
2023/04/19 01:54:14;;;;;;;13.95;7.78;;;;;;;-142.75;100.00;78363.97;5013728;28;20034;-66
2023/04/19 01:56:39;;;;;;;13.82;8.27;;;;;;;-142.75;100.00;78391.53;5013725;28;20026;-67
2023/04/19 01:59:05;;;;;;;13.25;8.10;;;;;;;-142.75;100.00;78385.63;5013666;28;20029;-66
2023/04/19 02:01:30;;;;;;;18.60;8.40;;;;;;;-142.75;100.00;78393.50;5013446;28;20064;-66
2023/04/19 02:03:56;;;;;;;15.50;7.88;;;;;;;-142.75;100.00;78379.72;5012830;28;20034;-66
2023/04/19 02:06:21;;;;;;;12.32;7.47;;;;;;;-142.75;100.00;78399.44;5012708;28;20026;-66
2023/04/19 02:08:46;;;;;;;12.75;7.63;;;;;;;-142.75;100.00;78393.50;5012463;28;20120;-65
2023/04/19 02:11:16;;;;;;;12.93;8.05;;;;;;;-142.75;100.00;78383.66;5012571;28;20401;-66
2023/04/19 02:13:41;;;;;;;13.32;7.63;;;;;;;-142.75;100.00;78395.47;5012404;28;20022;-68
2023/04/19 02:16:09;;;;;;;14.48;7.97;;;;;;;-142.75;100.00;78405.34;5012464;28;20163;-66
2023/04/19 02:18:38;;;;;;;13.30;8.20;;;;;;;-142.75;100.00;78419.13;4994768;28;20029;-67
2023/04/19 02:21:04;;;;;;;11.83;7.20;;;;;;;-142.75;100.00;78427.00;5012496;28;20473;-66
2023/04/19 02:23:30;;;;;;;13.30;8.25;;;;;;;-142.75;100.00;78428.97;5012171;28;20117;-67
2023/04/19 02:25:55;;;;;;;15.95;8.15;;;;;;;-142.75;100.00;78432.91;5012392;28;20105;-66
2023/04/19 02:28:20;;;;;;;12.95;7.40;;;;;;;-142.75;100.00;78438.81;5012228;28;20034;-67
2023/04/19 02:30:46;;;;;;;12.48;8.38;;;;;;;-142.75;100.00;78444.72;5012331;28;20025;-66
2023/04/19 02:33:11;;;;;;;12.23;7.73;;;;;;;-142.75;100.00;78444.72;5012118;28;20105;-66
2023/04/19 02:35:37;;;;;;;17.87;7.50;;;;;;;-142.75;100.00;78460.47;4994559;28;20409;-66
2023/04/19 02:38:03;;;;;;;18.17;8.50;;;;;;;-142.75;100.00;78456.53;5011977;28;20478;-67
2023/04/19 02:40:29;;;;;;;15.60;7.32;;;;;;;-142.75;100.00;78470.31;5012647;28;20052;-66
2023/04/19 02:42:55;;;;;;;14.43;8.20;;;;;;;-142.75;100.00;78468.34;5011976;28;20109;-66
2023/04/19 02:45:20;;;;;;;16.77;8.93;;;;;;;-142.75;100.00;78456.53;4994517;28;20026;-66
2023/04/19 02:47:46;;;;;;;14.93;9.00;;;;;;;-142.75;100.00;78456.53;4994308;28;20030;-66
2023/04/19 02:50:12;;;;;;;14.95;9.02;;;;;;;-142.75;100.00;78456.53;5012006;28;20032;-68
2023/04/19 02:52:38;;;;;;;16.13;8.00;;;;;;;-142.75;100.00;78452.59;4994216;28;20026;-67
2023/04/19 02:55:04;;;;;;;17.33;8.40;;;;;;;-142.75;100.00;78452.59;5011724;28;20076;-67
2023/04/19 02:57:30;;;;;;;13.53;8.10;;;;;;;-142.75;100.00;78472.28;5011634;28;20478;-66
2023/04/19 02:59:55;;;;;;;12.60;7.60;;;;;;;-142.75;100.00;78476.22;5011302;28;20036;-66
2023/04/19 03:02:20;;;;;;;14.17;8.57;;;;;;;-142.75;100.00;78464.41;5011602;28;20060;-67
2023/04/19 03:04:46;;;;;;;13.07;8.10;;;;;;;-142.75;100.00;78468.34;4976198;28;1042918;-66
2023/04/19 03:07:12;;;;;;;15.50;8.97;;;;;;;-142.75;100.00;78460.47;5012382;28;20022;-67
2023/04/19 03:09:38;;;;;;;13.47;8.63;;;;;;;-142.75;100.00;78450.63;4994863;28;20022;-66
2023/04/19 03:12:04;;;;;;;15.33;7.90;;;;;;;-142.75;100.00;78456.53;4994913;28;20486;-66
2023/04/19 03:14:29;;;;;;;13.02;8.27;;;;;;;-142.75;100.00;78438.81;5012249;28;20493;-67
2023/04/19 03:16:54;;;;;;;14.53;8.27;;;;;;;-142.75;100.00;78456.53;5012322;28;20040;-66
2023/04/19 03:19:20;;;;;;;16.13;8.60;;;;;;;-142.75;100.00;78446.69;5012225;28;20026;-66
2023/04/19 03:21:45;;;;;;;16.60;8.57;;;;;;;-142.75;100.00;78448.66;5012244;28;20029;-67
2023/04/19 03:24:11;;;;;;;12.93;8.30;;;;;;;-142.75;100.00;78448.66;5012083;28;20037;-67
2023/04/19 03:26:36;;;;;;;14.67;8.33;;;;;;;-142.75;100.00;78448.66;5012331;28;20022;-66
2023/04/19 03:29:01;;;;;;;13.20;8.13;;;;;;;-142.75;100.00;78440.78;5012018;28;20014;-67
2023/04/19 03:31:27;;;;;;;18.63;8.98;;;;;;;-142.75;100.00;78430.94;4994605;28;20032;-66
2023/04/19 03:33:52;;;;;;;17.23;8.40;;;;;;;-142.75;100.00;78436.84;5012031;28;20033;-67
2023/04/19 03:36:18;;;;;;;13.97;8.73;;;;;;;-142.75;100.00;78436.84;5012226;28;20100;-66
2023/04/19 03:38:43;;;;;;;16.35;8.80;;;;;;;-142.75;100.00;78440.78;5011868;28;20390;-66
2023/04/19 03:41:27;;;;;;;12.20;7.63;;;;;;;-142.75;100.00;78428.97;5012110;28;20034;-66
2023/04/19 03:43:52;;;;;;;16.33;8.73;;;;;;;-142.75;100.00;78415.19;5011934;28;20022;-67
2023/04/19 03:46:17;;;;;;;14.23;8.17;;;;;;;-142.75;100.00;78419.13;5012088;28;20014;-65
2023/04/19 03:48:43;;;;;;;16.67;8.90;;;;;;;-142.75;100.00;78409.28;5011743;28;20067;-65
2023/04/19 03:51:08;;;;;;;13.57;8.03;;;;;;;-142.75;100.00;78413.22;4994239;28;20080;-66
2023/04/19 03:53:35;;;;;;;15.27;7.77;;;;;;;-142.75;100.00;78417.16;4994109;28;20025;-66
2023/04/19 03:56:00;;;;;;;14.03;8.33;;;;;;;-142.75;100.00;78419.13;5011863;28;20026;-66
2023/04/19 03:58:26;;;;;;;15.70;8.03;;;;;;;-142.75;100.00;78413.22;5011735;28;20029;-66
2023/04/19 04:00:52;;;;;;;13.80;8.10;;;;;;;-142.75;100.00;78421.09;5011866;28;20048;-66
2023/04/19 04:03:17;;;;;;;12.67;7.60;;;;;;;-142.75;100.00;78430.94;5011600;28;20414;-66
2023/04/19 04:05:43;;;;;;;17.33;7.90;;;;;;;-142.75;100.00;78428.97;5011765;28;20029;-65
2023/04/19 04:08:08;;;;;;;16.73;8.27;;;;;;;-142.75;100.00;78423.06;5011595;28;20026;-66
2023/04/19 04:10:34;;;;;;;11.65;7.35;;;;;;;-142.75;100.00;78417.16;5011795;28;20026;-67
2023/04/19 04:12:59;;;;;;;16.33;8.43;;;;;;;-142.75;100.00;78425.03;5011618;28;20025;-66
2023/04/19 04:15:24;;;;;;;15.20;7.73;;;;;;;-142.75;100.00;78411.25;5015052;28;20030;-66
2023/04/19 04:17:50;;;;;;;13.27;7.77;;;;;;;-142.75;100.00;78423.06;5015513;28;20053;-65
2023/04/19 04:20:15;;;;;;;13.23;7.18;;;;;;;-142.75;100.00;78413.22;5015581;28;20029;-66
2023/04/19 04:22:47;;;;;;;14.07;7.72;;;;;;;-142.75;100.00;78413.22;5015491;28;20497;-66
2023/04/19 04:25:16;;;;;;;13.32;7.35;;;;;;;-142.75;100.00;78415.19;5015421;28;20022;-66
2023/04/19 04:27:42;;;;;;;11.80;7.55;;;;;;;-142.75;100.00;78401.38;5015374;28;20418;-66
2023/04/19 04:30:09;;;;;;;13.23;6.93;;;;;;;-142.75;100.00;78409.28;5015443;28;20097;-66
2023/04/19 04:32:34;;;;;;;12.30;7.53;;;;;;;-142.75;100.00;78425.03;5015374;28;20037;-66
2023/04/19 04:35:03;;;;;;;12.38;7.90;;;;;;;-142.75;100.00;78413.22;5014918;28;20038;-66
2023/04/19 04:37:32;;;;;;;15.23;7.38;;;;;;;-142.75;100.00;78428.97;5014599;28;20037;-66
2023/04/19 04:39:58;;;;;;;13.70;7.78;;;;;;;-142.75;100.00;78425.03;5015242;28;20389;-66
2023/04/19 04:42:23;;;;;;;12.40;7.53;;;;;;;-142.75;100.00;78430.94;5015258;28;20032;-68
2023/04/19 04:44:49;;;;;;;15.00;7.35;;;;;;;-142.75;100.00;78421.09;5015026;28;20037;-66
2023/04/19 04:47:15;;;;;;;12.45;7.55;;;;;;;-142.75;100.00;78444.72;5014892;28;20024;-66
2023/04/19 04:49:41;;;;;;;15.67;7.67;;;;;;;-142.75;100.00;78432.91;5015081;28;20053;-66
2023/04/19 04:52:07;;;;;;;13.80;6.95;;;;;;;-142.75;100.00;78432.91;4997360;28;20068;-67
2023/04/19 04:54:32;;;;;;;12.77;6.77;;;;;;;-142.75;100.00;78427.00;5014871;28;20032;-67
2023/04/19 04:56:58;;;;;;;12.75;7.22;;;;;;;-142.75;100.00;78425.03;5014820;28;20026;-66
2023/04/19 04:59:24;;;;;;;10.20;6.35;;;;;;;-142.75;100.00;78430.94;4997181;28;20556;-66
2023/04/19 05:01:49;;;;;;;16.15;7.35;;;;;;;-142.75;100.00;78411.25;5014416;28;20068;-66
2023/04/19 05:04:15;;;;;;;11.63;7.43;;;;;;;-142.75;100.00;78413.22;4997044;28;20032;-65
2023/04/19 05:06:40;;;;;;;16.17;7.67;;;;;;;-142.75;100.00;78436.84;5014774;28;20026;-66
2023/04/19 05:09:06;;;;;;;11.43;7.00;;;;;;;-142.75;100.00;78409.28;5014622;28;20398;-67
2023/04/19 05:11:32;;;;;;;12.18;7.07;;;;;;;-142.75;100.00;78397.44;5014653;28;20032;-67
2023/04/19 05:13:57;;;;;;;12.18;6.60;;;;;;;-142.75;100.00;78391.53;5014489;28;20105;-65
2023/04/19 05:16:22;;;;;;;13.13;6.65;;;;;;;-142.75;100.00;78399.44;5014479;28;20088;-67
2023/04/19 05:18:48;;;;;;;13.25;6.47;;;;;;;-142.75;100.00;78391.53;5014416;28;20496;-67
2023/04/19 05:21:13;;;;;;;12.73;7.05;;;;;;;-142.75;100.00;78373.81;5014446;28;20052;-67
2023/04/19 05:23:41;;;;;;;10.70;6.07;;;;;;;-142.75;100.00;78367.91;5014236;28;20037;-66
2023/04/19 05:26:06;;;;;;;11.20;6.60;;;;;;;-142.75;100.00;78362.00;4996747;28;20079;-66
2023/04/19 05:28:31;;;;;;;11.30;6.88;;;;;;;-142.75;100.00;78362.00;5013825;28;20022;-67
2023/04/19 05:30:57;;;;;;;12.93;6.32;;;;;;;-142.75;100.00;78344.28;5014273;28;20032;-67
2023/04/19 05:33:22;;;;;;;11.73;6.03;;;;;;;-142.75;100.00;78365.94;4996283;28;20437;-66
2023/04/19 05:35:47;;;;;;;11.35;6.18;;;;;;;-142.75;100.00;78369.88;4996257;28;20397;-66
2023/04/19 05:38:13;;;;;;;12.35;6.10;;;;;;;-142.75;100.00;78389.56;5013505;28;20389;-67
2023/04/19 05:40:38;;;;;;;12.85;6.47;;;;;;;-142.75;100.00;78371.84;5013457;28;20026;-66
2023/04/19 05:43:04;;;;;;;10.05;6.32;;;;;;;-142.75;100.00;78377.75;4996387;28;20520;-67
2023/04/19 05:45:30;;;;;;;9.43;5.68;;;;;;;-142.75;100.00;78365.94;5013992;28;20022;-66
2023/04/19 05:47:55;;;;;;;10.10;6.20;;;;;;;-142.75;100.00;78360.03;5013922;28;20034;-65
2023/04/19 05:50:20;;;;;;;10.80;5.43;;;;;;;-142.75;100.00;78354.13;5013900;28;20041;-66
2023/04/19 05:52:46;;;;;;;10.15;6.05;;;;;;;-142.75;100.00;78342.31;5013877;28;20021;-67
2023/04/19 05:55:11;;;;;;;10.10;6.28;;;;;;;-142.75;100.00;78320.66;5013148;28;20386;-66
2023/04/19 05:57:36;;;;;;;12.23;6.03;;;;;;;-142.75;100.00;78342.31;5013321;28;20018;-66
2023/04/19 06:00:03;;;;;;;10.02;5.80;;;;;;;-142.75;100.00;78342.31;5013602;28;20496;-68
2023/04/19 06:02:29;;;;;;;10.80;6.15;;;;;;;-142.75;100.00;78322.63;4996026;28;20493;-65
2023/04/19 06:04:56;;;;;;;10.85;5.88;;;;;;;-142.75;100.00;78326.56;5013495;28;20032;-67
2023/04/19 06:07:22;;;;;;;9.70;6.07;;;;;;;-142.75;100.00;78328.53;5013504;28;20040;-66
2023/04/19 06:09:47;;;;;;;9.10;5.00;;;;;;;-142.75;100.00;78318.69;5013616;28;20481;-66
2023/04/19 06:12:13;;;;;;;10.52;5.55;;;;;;;-142.75;100.00;78291.09;5013608;28;20026;-66
2023/04/19 06:14:38;;;;;;;10.32;5.97;;;;;;;-142.75;100.00;78285.19;4995007;28;20528;-65
2023/04/19 06:17:04;;;;;;;12.60;5.50;;;;;;;-142.75;100.00;78247.78;5012333;28;20030;-66
2023/04/19 06:19:31;;;;;;;9.40;5.55;;;;;;;-142.75;100.00;78214.31;5012743;28;20097;-68
2023/04/19 06:21:57;;;;;;;11.02;5.78;;;;;;;-142.75;100.00;78275.34;5013428;28;20014;-66
2023/04/19 06:24:22;;;;;;;9.27;5.30;;;;;;;-142.75;100.00;78239.91;5013261;28;20097;-63
2023/04/19 06:26:48;;;;;;;10.40;5.55;;;;;;;-142.75;100.00;78257.63;4994623;28;20489;-66
2023/04/19 06:29:13;;;;;;;8.82;5.32;;;;;;;-142.75;100.00;78212.34;5012231;28;20014;-67
2023/04/19 06:31:39;;;;;;;8.32;5.40;;;;;;;-142.75;100.00;78234.00;5013218;28;20080;-66
2023/04/19 06:34:04;;;;;;;9.13;5.05;;;;;;;-142.75;100.00;78220.22;5012540;28;20018;-66
2023/04/19 06:36:31;;;;;;;10.55;5.25;;;;;;;-142.75;100.00;78259.59;5012117;28;20026;-68
2023/04/19 06:38:56;;;;;;;8.43;4.82;;;;;;;-142.75;100.00;78232.03;4994847;28;20018;-68
2023/04/19 06:41:21;;;;;;;11.73;5.40;;;;;;;-142.75;100.00;78224.16;5012684;28;20024;-66
2023/04/19 06:43:47;;;;;;;14.32;5.53;;;;;;;-142.75;100.00;78228.09;4995170;28;20025;-66
2023/04/19 06:46:15;;;;;;;8.27;4.97;;;;;;;-142.75;100.00;78170.97;5012495;28;20026;-67
2023/04/19 06:48:40;;;;;;;9.13;5.57;;;;;;;-142.75;100.00;78165.06;5012214;28;20029;-68
2023/04/19 06:51:06;;;;;;;7.07;4.43;;;;;;;-142.75;100.00;78141.44;5012467;28;20669;-63
2023/04/19 06:53:31;;;;;;;9.80;5.18;;;;;;;-142.75;100.00;78125.69;5010587;28;20433;-67
2023/04/19 06:55:59;;;;;;;10.30;5.05;;;;;;;-142.75;100.00;78117.81;5011964;28;20197;-66
2023/04/19 06:58:25;;;;;;;6.68;4.38;;;;;;;-142.75;100.00;78161.13;5011549;28;20036;-67
2023/04/19 07:00:51;;;;;;;7.05;4.45;;;;;;;-142.75;100.00;78092.22;5011726;28;20109;-67
2023/04/19 07:03:16;;;;;;;8.88;4.90;;;;;;;-142.75;100.00;78072.53;4994721;28;20079;-67
2023/04/19 07:05:41;;;;;;;8.90;4.35;;;;;;;-142.75;100.00;78090.25;5012646;28;20026;-69
2023/04/19 07:08:07;;;;;;;7.68;4.93;;;;;;;-142.75;100.00;78088.28;5012515;28;20109;-66
2023/04/19 07:10:32;;;;;;;10.20;5.15;;;;;;;-142.75;100.00;78029.19;5012496;28;20021;-67
2023/04/19 07:12:57;;;;;;;8.63;4.35;;;;;;;-142.75;98.35;78068.59;5012199;28;20037;-67
2023/04/19 07:15:22;;;;;;;8.20;5.10;;;;;;;-142.75;97.54;78050.84;5012287;28;20060;-68
2023/04/19 07:17:48;;;;;;;11.27;4.30;;;;;;;-142.75;95.54;78066.63;5012112;28;20025;-67
2023/04/19 07:20:13;;;;;;;8.55;4.63;;;;;;;-142.75;97.55;78029.19;5012356;28;20022;-67
2023/04/19 07:22:38;;;;;;;8.23;4.53;;;;;;;-142.75;95.86;78031.16;5012232;28;20030;-67
2023/04/19 07:25:04;;;;;;;8.98;4.95;;;;;;;-142.75;96.26;77983.91;5012128;28;20134;-67
2023/04/19 07:27:29;;;;;;;10.00;4.38;;;;;;;-142.75;92.02;77960.28;5012102;28;20025;-66
2023/04/19 07:29:55;;;;;;;8.45;4.50;;;;;;;-142.75;93.21;77924.84;5012220;28;20025;-69
2023/04/19 07:32:20;;;;;;;8.55;4.50;;;;;;;-142.75;91.55;77913.03;5010933;28;20417;-68
2023/04/19 07:34:45;;;;;;;9.60;4.40;;;;;;;-142.75;89.69;77920.91;4994357;28;20036;-67
2023/04/19 07:37:11;;;;;;;8.40;5.13;;;;;;;-142.75;86.11;77905.13;4994356;28;20021;-67
2023/04/19 07:39:37;;;;;;;10.05;4.70;;;;;;;-142.75;84.64;77883.47;5011827;28;20099;-65
2023/04/19 07:42:02;;;;;;;10.90;4.03;;;;;;;-142.75;85.21;77863.78;5011924;28;20026;-67
2023/04/19 07:44:27;;;;;;;6.30;4.20;;;;;;;-142.75;85.75;77828.34;5011643;28;20042;-68
2023/04/19 07:46:53;;;;;;;8.35;3.58;;;;;;;-142.75;82.97;77826.38;4994156;28;20018;-68
2023/04/19 07:49:18;;;;;;;6.45;4.20;;;;;;;-142.75;82.52;77792.91;5010571;28;20033;-69
2023/04/19 07:51:43;;;;;;;7.63;4.57;;;;;;;-142.75;82.12;77787.00;4994194;28;20018;-68
2023/04/19 07:54:09;;;;;;;7.95;4.30;;;;;;;-142.75;81.57;77775.19;5011627;28;20398;-68
2023/04/19 07:56:34;;;;;;;8.40;4.10;;;;;;;-142.75;80.70;77771.25;5011770;28;20022;-70
2023/04/19 07:59:00;;;;;;;9.48;3.80;;;;;;;-142.75;79.47;77790.94;5011625;28;20025;-68
2023/04/19 08:01:25;;;;;;;8.05;3.50;;;;;;;-142.75;79.86;77739.75;5011821;28;20025;-68
2023/04/19 08:03:50;;;;;;;7.65;3.80;;;;;;;-142.75;79.33;77735.81;5011444;28;20026;-68
2023/04/19 08:06:16;;;;;;;6.70;3.97;;;;;;;-142.75;75.83;77771.25;4994233;28;20033;-68
2023/04/19 08:08:42;;;;;;;7.05;3.72;;;;;;;-142.75;75.05;77785.03;4993901;28;20022;-66
2023/04/19 08:11:07;;;;;;;7.55;3.47;;;;;;;-142.75;75.85;77792.91;5011774;28;20543;-68
2023/04/19 08:13:33;;;;;;;5.72;3.45;;;;;;;-142.75;75.79;77765.34;4992947;28;20022;-67
2023/04/19 08:15:58;;;;;;;7.30;3.50;;;;;;;-142.75;75.63;77759.44;5011086;28;20026;-69
2023/04/19 08:18:24;;;;;;;6.65;3.88;;;;;;;-142.75;74.68;77741.72;5022765;28;20021;-68
2023/04/19 08:20:49;;;;;;;5.43;3.15;;;;;;;-142.75;72.48;77792.91;5019921;28;20026;-69
2023/04/19 08:23:15;;;;;;;6.68;3.88;;;;;;;-142.75;73.13;77800.78;5011118;28;20651;-67
2023/04/19 08:25:41;;;;;;;7.43;3.35;;;;;;;-142.75;72.24;77796.84;5011231;28;20018;-68
2023/04/19 08:28:06;;;;;;;13.32;3.70;;;;;;;-142.75;73.19;77759.44;5010768;28;20096;-68
2023/04/19 08:30:31;;;;;;;5.93;3.38;;;;;;;-142.75;72.36;77769.28;5010505;28;20026;-68
2023/04/19 08:32:57;;;;;;;5.35;3.00;;;;;;;-142.75;73.46;77731.88;5011269;28;20029;-67
2023/04/19 08:35:24;;;;;;;5.00;2.80;;;;;;;-142.75;73.02;77688.53;5027567;28;20123;-68
2023/04/19 08:37:49;;;;;;;7.82;3.33;;;;;;;-142.75;70.88;77698.38;5029600;28;20025;-68
2023/04/19 08:40:15;;;;;;;5.57;3.10;;;;;;;-142.75;72.78;77655.06;5014464;28;20033;-66
2023/04/19 08:42:41;;;;;;;5.85;2.65;;;;;;;-142.75;69.10;77621.59;5011549;28;20560;-67
2023/04/19 08:45:07;;;;;;;4.85;2.50;;;;;;;-142.75;67.19;77586.16;5024760;28;20087;-68
2023/04/19 08:47:34;;;;;;;6.32;2.50;;;;;;;-142.75;67.41;77639.31;5015926;28;20032;-67
2023/04/19 08:50:04;;;;;;;5.15;2.72;;;;;;;-142.75;69.07;77613.72;5005662;28;20114;-68
2023/04/19 08:52:32;;;;;;;7.00;3.05;;;;;;;-142.75;67.87;77647.19;5030985;28;20103;-67
2023/04/19 08:55:02;;;;;;;4.88;2.55;;;;;;;-142.75;69.02;77680.66;5020653;28;20033;-68
2023/04/19 08:57:30;;;;;;;6.47;2.72;;;;;;;-142.75;68.81;77688.53;5010773;28;20104;-70
2023/04/19 08:59:56;;;;;;;4.22;2.60;;;;;;;-142.75;66.30;77676.72;5013615;28;20493;-68
2023/04/19 09:02:22;;;;;;;4.82;2.47;;;;;;;-142.75;66.40;77645.22;5014520;28;20490;-69
2023/04/19 09:04:48;;;;;;;4.55;2.58;;;;;;;-142.75;65.86;77613.72;5016147;28;20025;-65
2023/04/19 09:07:26;;;;;;;7.25;2.85;;;;;;;-142.75;66.81;77578.28;5014214;28;20076;-68
2023/04/19 09:10:06;;;;;;;5.90;2.58;;;;;;;-142.75;65.62;77531.03;5015699;28;20071;-69
2023/04/19 09:12:33;;;;;;;5.45;2.67;;;;;;;-142.75;63.85;77527.09;4995616;28;20024;-68
2023/04/19 09:15:00;;;;;;;5.95;2.42;;;;;;;-142.75;66.04;77493.63;5021102;28;20246;-68
2023/04/19 09:17:25;;;;;;;4.53;2.25;;;;;;;-142.75;64.24;77534.97;5013492;28;20573;-66
2023/04/19 09:19:50;;;;;;;4.53;2.67;;;;;;;-142.75;64.59;77538.91;4997309;28;20057;-68
2023/04/19 09:22:16;;;;;;;5.50;2.53;;;;;;;-142.75;62.02;77538.91;5012411;28;20053;-67
2023/04/19 09:24:41;;;;;;;4.85;2.40;;;;;;;-142.75;59.76;77527.09;5012383;28;20065;-67
2023/04/19 09:27:09;;;;;;;4.95;2.45;;;;;;;-142.75;59.64;77576.31;5013216;28;20097;-66
2023/04/19 09:29:34;;;;;;;5.72;2.67;;;;;;;-142.75;62.02;77550.72;5014142;28;20022;-66
2023/04/19 09:31:59;;;;;;;5.15;2.30;;;;;;;-142.75;62.27;77562.53;4996661;28;20044;-68
2023/04/19 09:34:27;;;;;;;4.78;2.33;;;;;;;-142.75;58.11;77605.84;5014032;28;20017;-67
2023/04/19 09:36:53;;;;;;;3.10;1.90;;;;;;;-142.75;56.41;77560.56;5014054;28;20029;-67
2023/04/19 09:39:30;;;;;;;4.47;2.00;;;;;;;-142.75;56.19;77534.97;4996449;28;20061;-67
2023/04/19 09:41:57;;;;;;;4.57;1.98;;;;;;;-142.75;54.78;77584.19;4996078;28;20116;-66
2023/04/19 09:44:22;;;;;;;4.93;2.25;;;;;;;-142.75;52.52;77586.16;5012639;28;20014;-66
2023/04/19 09:46:50;;;;;;;6.63;2.17;;;;;;;-142.75;52.56;77609.78;5010754;28;20029;-67
2023/04/19 09:49:20;;;;;;;4.00;2.30;;;;;;;-142.75;55.63;77635.38;4995659;28;20076;-67
2023/04/19 09:51:46;;;;;;;2.80;1.60;;;;;;;-142.75;50.94;77637.34;5013916;28;20033;-65
2023/04/19 09:54:13;;;;;;;7.78;2.28;;;;;;;-142.75;51.68;77574.34;4996079;28;20490;-66
2023/04/19 09:56:39;;;;;;;7.13;2.20;;;;;;;-142.75;50.55;77594.03;5012721;28;20033;-66
2023/04/19 09:59:06;;;;;;;3.35;1.77;;;;;;;-142.75;47.42;77651.13;5013096;28;20092;-66
2023/04/19 10:01:37;;;;;;;8.35;2.08;;;;;;;-142.75;49.49;77588.13;5012823;28;20026;-65
2023/04/19 10:04:08;;;;;;;4.40;2.05;;;;;;;-142.75;47.56;77623.56;5012960;28;20053;-66
2023/04/19 10:06:34;;;;;;;7.07;1.77;;;;;;;-142.75;49.48;77568.44;5010814;28;20024;-67
2023/04/19 10:09:04;;;;;;;5.72;2.10;;;;;;;-142.75;52.00;77538.91;5012987;28;20025;-67
2023/04/19 10:11:37;;;;;;;3.63;2.00;;;;;;;-142.75;51.46;77527.09;5012509;28;20079;-67
2023/04/19 10:14:04;;;;;;;2.90;1.80;;;;;;;-142.75;49.72;77533.00;5013285;28;20022;-67
2023/04/19 10:16:31;;;;;;;3.38;1.70;;;;;;;-142.75;50.62;77517.25;5013238;28;20084;-67
2023/04/19 10:18:57;;;;;;;3.85;1.83;;;;;;;-142.75;48.18;77533.00;5013244;28;20036;-68
2023/04/19 10:21:24;;;;;;;3.95;1.77;;;;;;;-142.75;48.41;77458.16;5012765;28;20030;-69
2023/04/19 10:23:50;;;;;;;5.85;1.35;;;;;;;-142.75;49.13;77428.63;5010348;28;20025;-65
2023/04/19 10:26:16;;;;;;;6.97;1.65;;;;;;;-142.75;49.16;77381.38;5012407;28;20014;-67
2023/04/19 10:28:41;;;;;;;4.85;1.35;;;;;;;-142.75;46.01;77405.00;5012982;28;20493;-67
2023/04/19 10:31:11;;;;;;;5.25;1.23;;;;;;;-142.75;44.31;77420.75;5013148;28;20075;-67
2023/04/19 10:33:37;;;;;;;3.17;1.10;;;;;;;-142.75;43.87;77428.63;5012998;28;20026;-66
2023/04/19 10:36:03;;;;;;;3.75;1.05;;;;;;;-142.75;44.46;77442.41;5012920;28;20037;-67
2023/04/19 10:38:38;;;;;;;5.65;1.30;;;;;;;-142.75;43.83;77436.50;5012641;28;20092;-67
2023/04/19 10:41:10;;;;;;;4.43;1.20;;;;;;;-142.75;43.66;77416.81;5015581;28;20084;-66
2023/04/19 10:43:36;;;;;;;4.25;1.02;;;;;;;-142.75;41.40;77450.28;5015307;28;20079;-67
2023/04/19 10:46:12;;;;;;;9.52;1.80;;;;;;;-142.75;40.21;77521.19;5032631;28;20489;-68
2023/04/19 10:48:52;;;;;;;2.27;0.93;;;;;;;-142.75;40.34;77605.84;5032231;28;20123;-67
2023/04/19 10:51:18;;;;;;;3.90;1.20;;;;;;;-142.75;41.23;77570.41;5011235;28;20090;-65
2023/04/19 10:53:52;;;;;;;4.10;0.90;;;;;;;-142.75;39.83;77582.22;5014458;28;20057;-64
2023/04/19 10:56:40;;;;;;;3.03;0.90;;;;;;;-142.75;40.90;77594.03;5012206;28;20478;-66
2023/04/19 10:59:10;;;;;;;2.53;1.00;;;;;;;-142.75;43.30;77519.22;4981885;28;20097;-67
2023/04/19 11:01:39;;;;;;;2.35;1.05;;;;;;;-142.75;42.94;77499.53;4994614;28;20044;-67